METAR Data
IDs: Format: Raw Decoded Include TAF

Data at: 1351 UTC 07 Jul 2020

KGGE 071335Z AUTO 10003KT 10SM CLR 23/22 A3005 RMK AO2
KGGE 071315Z AUTO 08003KT 10SM -DZ SCT033 SCT042 BKN055 23/22 A3005 RMK AO2
KGGE 071255Z AUTO 09004KT 4SM RA SCT004 BKN036 OVC045 22/22 A3005 RMK AO2
KGGE 071235Z AUTO 08003KT 1SM +RA OVC006 23/22 A3006 RMK AO2
KGGE 071215Z AUTO 00000KT 7SM RA BKN016 OVC021 23/22 A3005 RMK AO2
KGGE 071155Z AUTO 00000KT 5SM RA BKN019 BKN026 OVC047 23/22 A3004 RMK AO2
KGGE 071135Z AUTO 00000KT 7SM RA SCT023 BKN040 OVC047 23/22 A3004 RMK AO2
KGGE 071115Z AUTO 00000KT 10SM -RA SCT041 SCT047 BKN060 23/22 A3004 RMK AO2
KGGE 071055Z AUTO 00000KT 10SM CLR 23/22 A3004 RMK AO2
KGGE 071035Z AUTO 00000KT 10SM CLR 22/22 A3003 RMK AO2
KGGE 071015Z AUTO 00000KT 10SM CLR 22/22 A3003 RMK AO2
KGGE 070955Z AUTO 00000KT 10SM CLR 22/22 A3003 RMK AO2
KGGE 070935Z AUTO 00000KT 10SM CLR 22/22 A3003 RMK AO2
KGGE 070915Z AUTO 00000KT 10SM CLR 23/22 A3003 RMK AO2
KGGE 070855Z AUTO 00000KT 10SM CLR 23/22 A3003 RMK AO2
KGGE 070815Z AUTO 00000KT 10SM CLR 22/22 A3003 RMK AO2
KGGE 070755Z AUTO 00000KT 10SM CLR 22/22 A3003 RMK AO2
KGGE 070735Z AUTO 00000KT 10SM -RA SCT026 SCT032 SCT040 22/22 A3004 RMK AO2
KGGE 070715Z AUTO 00000KT 4SM -RA SCT017 BKN032 OVC039 22/22 A3005 RMK AO2
KGGE 070655Z AUTO 00000KT 4SM +RA SCT017 SCT028 BKN034 22/22 A3006 RMK AO2
KGGE 070635Z AUTO 00000KT 4SM +RA SCT017 BKN026 BKN032 22/22 A3006 RMK AO2
KGGE 070615Z AUTO 00000KT 10SM RA SCT023 BKN029 BKN039 22/22 A3006 RMK AO2
KGGE 070555Z AUTO 00000KT 10SM CLR 22/22 A3006 RMK AO2
KGGE 070535Z AUTO 00000KT 10SM CLR 22/22 A3007 RMK AO2
KGGE 070515Z AUTO 00000KT 10SM CLR 22/22 A3007 RMK AO2
KGGE 070455Z AUTO 00000KT 10SM SCT018 SCT027 22/22 A3006 RMK AO2
KGGE 070415Z AUTO 00000KT 10SM CLR 22/22 A3008 RMK AO2
KGGE 070355Z AUTO 00000KT 10SM SCT080 SCT120 22/22 A3008 RMK AO2
KGGE 070335Z AUTO 00000KT 10SM SCT020 SCT029 BKN075 22/21 A3008 RMK AO2
KGGE 070315Z AUTO 24004G10KT 4SM DZ SCT015 BKN029 OVC055 22/21 A3007 RMK AO2
KGGE 070255Z AUTO 23009G18KT 10SM RA SCT017 SCT024 BKN040 24/22 A3008 RMK AO2
KGGE 070235Z AUTO 00000KT 10SM SCT024 25/23 A3007 RMK AO2
KGGE 070215Z AUTO 00000KT 10SM CLR 25/23 A3007 RMK AO2
KGGE 070155Z AUTO 00000KT 10SM CLR 25/23 A3007 RMK AO2
KGGE 070135Z AUTO 00000KT 10SM CLR 25/23 A3006 RMK AO2
KGGE 070115Z AUTO 00000KT 10SM CLR 25/23 A3006 RMK AO2
KGGE 070055Z AUTO 00000KT 10SM CLR 25/23 A3006 RMK AO2
KGGE 070035Z AUTO 00000KT 10SM CLR 25/23 A3006 RMK AO2
KGGE 070015Z AUTO 00000KT 10SM CLR 26/23 A3006 RMK AO2
KGGE 062355Z AUTO 15003KT 10SM CLR 26/23 A3006 RMK AO2
KGGE 062335Z AUTO 15003KT 10SM CLR 26/23 A3006 RMK AO2
KGGE 062315Z AUTO 17004KT 10SM CLR 26/23 A3006 RMK AO2
KGGE 062255Z AUTO 16004KT 10SM CLR 27/23 A3005 RMK AO2
KGGE 062235Z AUTO 17004KT 10SM SCT019 27/23 A3006 RMK AO2
KGGE 062215Z AUTO 18006KT 10SM SCT019 SCT032 SCT042 27/23 A3005 RMK AO2
KGGE 062155Z AUTO 16006KT 10SM SCT021 BKN030 BKN042 27/23 A3005 RMK AO2
KGGE 062135Z AUTO 16007KT 10SM SCT019 SCT027 SCT032 28/23 A3005 RMK AO2
KGGE 062115Z AUTO 16004KT 10SM BKN019 BKN030 27/23 A3006 RMK AO2
KGGE 062055Z AUTO 14004KT 10SM SCT021 27/22 A3006 RMK AO2
KGGE 062015Z AUTO 17006KT 10SM SCT021 BKN026 29/23 A3006 RMK AO2
KGGE 061955Z AUTO 14008KT 10SM SCT021 BKN028 BKN038 28/23 A3006 RMK AO2
KGGE 061935Z AUTO 11006KT 10SM SCT039 SCT050 27/23 A3006 RMK AO2
KGGE 061915Z AUTO 11007KT 10SM CLR 28/23 A3007 RMK AO2
KGGE 061855Z AUTO 11009KT 10SM CLR 29/23 A3006 RMK AO2
KGGE 061835Z AUTO 10007KT 10SM SCT018 SCT048 SCT055 28/22 A3007 RMK AO2
KGGE 061815Z AUTO 15006KT 10SM SCT018 SCT048 SCT055 28/22 A3008 RMK AO2
KGGE 061755Z AUTO 12004KT 10SM SCT016 SCT110 27/23 A3008 RMK AO2
KGGE 061735Z AUTO 17004KT 10SM CLR 26/23 A3009 RMK AO2
KGGE 061715Z AUTO 14004KT 10SM CLR 26/22 A3010 RMK AO2
KGGE 061655Z AUTO 15003KT 10SM CLR 26/22 A3010 RMK AO2
KGGE 061635Z AUTO 00000KT 10SM SCT080 SCT120 25/22 A3011 RMK AO2
KGGE 061615Z AUTO 00000KT 10SM SCT080 BKN120 24/22 A3011 RMK AO2
KGGE 061555Z AUTO 14003KT 10SM SCT110 24/22 A3011 RMK AO2
KGGE 061535Z AUTO 14006KT 10SM SCT060 SCT085 SCT110 25/22 A3011 RMK AO2
KGGE 061515Z AUTO 12013G16KT 10SM SCT060 25/22 A3011 RMK AO2
KGGE 061455Z AUTO 12010KT 10SM SCT017 SCT023 BKN034 24/22 A3011 RMK AO2
KGGE 061415Z AUTO 00000KT 10SM CLR 25/23 A3008 RMK AO2
KGGE 061355Z AUTO 00000KT 10SM CLR 24/23 A3008 RMK AO2
KGGE 061335Z AUTO 00000KT 10SM CLR 24/23 A3008 RMK AO2
KGGE 061315Z AUTO 00000KT 10SM SCT030 SCT040 SCT045 23/22 A3008 RMK AO2
KGGE 061255Z AUTO 00000KT 10SM RA SCT016 BKN030 BKN041 24/22 A3007 RMK AO2
KGGE 061235Z AUTO 14006KT 10SM SCT012 SCT018 BKN024 25/23 A3006 RMK AO2
KGGE 061215Z AUTO 00000KT 10SM SCT020 SCT028 SCT100 27/23 A3006 RMK AO2
KGGE 061155Z AUTO 00000KT 10SM CLR 26/23 A3005 RMK AO2
KGGE 061135Z AUTO 00000KT 10SM CLR 24/23 A3004 RMK AO2
KGGE 061115Z AUTO 00000KT 10SM CLR 23/22 A3003 RMK AO2
KGGE 061055Z AUTO 00000KT 10SM CLR 22/22 A3003 RMK AO2
KGGE 061035Z AUTO 00000KT 10SM CLR 22/22 A3002 RMK AO2
KGGE 061015Z AUTO 00000KT 10SM CLR 22/22 A3002 RMK AO2
KGGE 060955Z AUTO 00000KT 10SM SCT048 SCT055 SCT110 22/22 A3002 RMK AO2
KGGE 060935Z AUTO 00000KT 10SM -DZ SCT020 SCT046 BKN075 23/22 A3001 RMK AO2
KGGE 060915Z AUTO 16008KT 10SM SCT015 SCT020 SCT039 23/22 A3001 RMK AO2
KGGE 060855Z AUTO 19003KT 10SM SCT120 23/22 A3001 RMK AO2
KGGE 060835Z AUTO 00000KT 10SM SCT120 23/22 A3000 RMK AO2
KGGE 060815Z AUTO 00000KT 10SM CLR 23/22 A3000 RMK AO2
KGGE 060755Z AUTO 00000KT 10SM SCT020 SCT037 SCT050 23/22 A2999 RMK AO2
KGGE 060735Z AUTO 00000KT 10SM SCT020 SCT028 SCT033 23/22 A3000 RMK AO2
KGGE 060655Z AUTO 00000KT 10SM SCT026 SCT031 SCT045 22/21 A3001 RMK AO2
KGGE 060635Z AUTO 00000KT 10SM CLR 23/21 A3002 RMK AO2
KGGE 060615Z AUTO 00000KT 10SM CLR 22/21 A3002 RMK AO2
KGGE 060535Z AUTO 00000KT 10SM CLR 23/21 A3003 RMK AO2
KGGE 060455Z AUTO 00000KT 10SM CLR 23/21 A3004 RMK AO2
KGGE 060435Z AUTO 00000KT 10SM CLR 23/21 A3003 RMK AO2
KGGE 060415Z AUTO 00000KT 10SM CLR 23/21 A3003 RMK AO2
KGGE 060355Z AUTO 00000KT 10SM CLR 23/21 A3003 RMK AO2
KGGE 060335Z AUTO 00000KT 10SM CLR 23/21 A3002 RMK AO2
KGGE 060315Z AUTO 15003KT 10SM CLR 23/21 A3001 RMK AO2
KGGE 060255Z AUTO 17003KT 10SM CLR 23/21 A3002 RMK AO2
KGGE 060235Z AUTO 00000KT 10SM CLR 23/21 A3002 RMK AO2
KGGE 060215Z AUTO 00000KT 10SM CLR 23/21 A3001 RMK AO2
KGGE 060155Z AUTO 00000KT 10SM CLR 24/21 A3002 RMK AO2